This is the latest recevied weather packets stored in our database for station/object SQ7IQO. If no packets are shown the sender has not sent any weather packets the latest 10 day(s).
| Time | Temp. | Humidity | Pressure | Rain* | Wind** | Luminosity | Snow |
|---|---|---|---|---|---|---|---|
| 1787732438 | 20.56° C | 57% | 1024.2 hPa | 0 mm | 0 m/s | - | - |
| 1787732378 | 20.56° C | 60% | 1025.9 hPa | 0 mm | 0 m/s | - | - |
| 1787732318 | 20.56° C | 60% | 1024.2 hPa | 0 mm | 0 m/s | - | - |
| 1787732258 | 20.56° C | 60% | 1024.2 hPa | 0 mm | 0 m/s | - | - |
| 1787732198 | 21.11° C | 59% | 1159.2 hPa | 0 mm | 0 m/s | - | - |
| 1787732138 | 21.11° C | 57% | 1020.2 hPa | 0 mm | 0 m/s | - | - |
| 1787732078 | 21.67° C | 55% | 1024.2 hPa | 0 mm | 0 m/s | - | - |
| 1787732018 | 22.22° C | 52% | 1024.2 hPa | 0 mm | 0.45 m/s, ° | - | - |
| 1787731958 | 22.22° C | 55% | 1024.2 hPa | 0 mm | 0 m/s | - | - |
| 1787731898 | 22.22° C | 55% | - | 0 mm | 0 m/s | - | - |
| 1787731838 | 21.67° C | 56% | 1021.9 hPa | 0 mm | 0 m/s | - | - |
| 1787731778 | 22.22° C | 54% | 1024.1 hPa | 0 mm | 0 m/s | - | - |
| 1787731718 | 21.67° C | 55% | 1024.2 hPa | 0 mm | 0 m/s | - | - |
| 1787731658 | 21.67° C | 56% | 1024.1 hPa | 0 mm | 0 m/s | - | - |
| 1787731598 | 21.11° C | 56% | 1024.2 hPa | 0 mm | 0 m/s | - | - |
| 1787731538 | 20.56° C | 57% | 1024.1 hPa | 0 mm | 0 m/s | - | - |
| 1787731478 | 20.56° C | 58% | 1024.1 hPa | 0 mm | 0 m/s | - | - |
| 1787731418 | 20.56° C | 57% | 1024.1 hPa | 0 mm | 0 m/s | - | - |
| 1787731358 | 21.11° C | 56% | 1024.2 hPa | 0 mm | 0.45 m/s, ° | - | - |
| 1787731298 | 21.11° C | 55% | 1024.2 hPa | 0 mm | 0 m/s | - | - |
| 1787731238 | 21.11° C | 58% | 1024.2 hPa | 0 mm | 0 m/s | - | - |
| 1787731178 | 21.11° C | 55% | - | 0 mm | 0 m/s | - | - |
| 1787731118 | 21.11° C | 56% | 1024.1 hPa | 0 mm | 0 m/s | - | - |
| 1787731058 | 21.11° C | 58% | 1024.2 hPa | 0 mm | 0 m/s | - | - |
| 1787730998 | 20.56° C | 60% | 1024.2 hPa | 0 mm | 0 m/s | - | - |
* Rain latest hour (hover to see other rain measurements)
** Current wind speed in m/s (hover to see current wind gust speed)